Capitola, CA

7:53 AM PST on March 01, 2015 (GMT -0800)
San Jose International | Change Station
CLOSE
Current Station
Airport
Location: San Jose,
Elevation: 59 ft
Nearby Weather Stations

Elev 59 ft 37.36 °N, 121.92 °W | Updated 1 hour ago

Partly Cloudy
Partly Cloudy
41 °F
Feels Like 41 °F
N
0
Wind Variable Wind from North

Today
High -- | Low -- °F
--% Chance of Precip.
Yesterday
High -- | Low -- °F
Precip. -- in
6:38 AM 6:01 PM
Waxing Gibbous, 86% visible
Pressure 29.97 in
Visibility 10.0 miles
Clouds Few 200 ft
Scattered Clouds 20000 ft
Dew Point 38 °F
Humidity 89%
Rainfall 0.00 in
Snow Depth Not available.
UV 0 out of 12
Pollen 8.20 out of 12
Air Quality Not available.
Flu Activity Not available.
METAR KSJC 011453Z 00000KT 10SM FEW002 SCT200 05/03 A2997 RMK AO2 SLP149 T00500033 52007

More Conditions Fewer Conditions

Pressure 29.97 in
Visibility 10.0 miles
Clouds Few 200 ft
Scattered Clouds 20000 ft
Dew Point 38 °F
Humidity 89%
Rainfall 0.00 in
Snow Depth Not available.
UV 0 out of 12
Pollen 8.20 out of 12
Air Quality Not available.
Flu Activity Not available.
METAR KSJC 011453Z 00000KT 10SM FEW002 SCT200 05/03 A2997 RMK AO2 SLP149 T00500033 52007

More Conditions Fewer Conditions

10-Day Weather Forecast

Almanac

Astronomy

Mar. 01, 2015 Rise Set
Actual Time
Civil Twilight
Nautical Twilight
Astronomical Twilight
Moon
Length of Visible Light
Length of Day
Tomorrow will be .
, % of the Moon is Illuminated

Today's Extremes

State Highs State Lows

Community

WunderPhotos

Upload Photos

1,801,435 photos uploaded!

WunderBlogs® & News

Nearby

Air Quality

  Air Quality AQ Index Pollutant
Not available.

Snow Depth

Station Depth Elevation

Earthquake Activity

City Distance Mag. Time & Date
Minimum magnitude displayed is 2.5.

Coastal Water Temperatures

Place Temperature

Nearby Weather Stations